createdAt,value
2022-12-07T00:01:42.136Z,85.38
2022-12-07T00:04:15.703Z,85.79
2022-12-07T00:06:48.241Z,86.16
2022-12-07T00:09:18.175Z,85.79
2022-12-07T00:11:45.920Z,85.82
2022-12-07T00:14:17.814Z,85.46
2022-12-07T00:16:46.234Z,86.16
2022-12-07T00:19:14.955Z,86.10
2022-12-07T00:21:42.197Z,86.28
2022-12-07T00:24:10.391Z,86.08
2022-12-07T00:26:39.978Z,86.72
2022-12-07T00:29:26.872Z,86.88
2022-12-07T00:31:56.721Z,86.95
2022-12-07T00:34:23.650Z,86.11
2022-12-07T00:36:50.828Z,85.56
2022-12-07T00:39:17.819Z,85.15
2022-12-07T00:41:44.915Z,85.47
2022-12-07T00:44:14.986Z,85.17
2022-12-07T00:46:42.829Z,84.08
2022-12-07T00:49:09.924Z,84.22
2022-12-07T00:51:36.852Z,84.73
2022-12-07T00:54:03.583Z,85.02
2022-12-07T00:56:30.545Z,85.81
2022-12-07T00:58:59.813Z,86.41
2022-12-07T01:01:41.370Z,86.58
2022-12-07T01:04:08.519Z,86.79
2022-12-07T01:06:50.297Z,86.35
2022-12-07T01:09:19.850Z,86.57
2022-12-07T01:11:46.516Z,87.03
2022-12-07T01:14:13.248Z,87.39
2022-12-07T01:16:41.366Z,87.09
2022-12-07T01:19:09.904Z,86.81
2022-12-07T01:21:39.623Z,87.56
2022-12-07T01:24:10.371Z,87.34
2022-12-07T01:26:37.831Z,87.39
2022-12-07T01:29:08.779Z,86.79
2022-12-07T01:31:35.590Z,86.51
2022-12-07T01:34:04.463Z,86.40
2022-12-07T01:36:33.428Z,86.63
2022-12-07T01:39:04.171Z,86.61
2022-12-07T01:41:34.045Z,86.40
2022-12-07T01:44:21.338Z,85.54
2022-12-07T01:46:59.716Z,86.17
2022-12-07T01:49:29.476Z,86.12
2022-12-07T01:52:32.796Z,85.66
2022-12-07T01:55:08.952Z,84.93
2022-12-07T01:57:40.904Z,84.99
2022-12-07T02:00:09.168Z,85.32
2022-12-07T02:02:39.459Z,85.78
2022-12-07T02:05:07.500Z,85.47
2022-12-07T02:07:36.507Z,85.50
2022-12-07T02:10:32.969Z,85.41
2022-12-07T02:13:07.884Z,85.05
2022-12-07T02:15:40.337Z,85.80
2022-12-07T02:18:26.646Z,85.47
2022-12-07T02:21:21.967Z,85.27
2022-12-07T02:24:25.775Z,85.46
2022-12-07T02:26:55.734Z,85.09
2022-12-07T02:29:28.443Z,85.06
2022-12-07T02:32:11.592Z,85.16
2022-12-07T02:34:55.875Z,85.14
2022-12-07T02:37:43.311Z,84.98
2022-12-07T02:40:26.215Z,84.58
2022-12-07T02:43:05.104Z,84.74
2022-12-07T02:45:32.960Z,85.07
2022-12-07T02:48:01.794Z,85.04
2022-12-07T02:50:29.700Z,85.16
2022-12-07T02:52:56.673Z,85.19
2022-12-07T02:55:29.909Z,85.73
2022-12-07T02:58:05.536Z,85.85
2022-12-07T03:00:47.529Z,86.07
2022-12-07T03:03:16.692Z,85.99
2022-12-07T03:06:08.112Z,85.53
2022-12-07T03:08:56.583Z,85.68
2022-12-07T03:11:45.819Z,85.28
2022-12-07T03:14:31.420Z,85.66
2022-12-07T03:17:17.507Z,85.31
2022-12-07T03:19:47.842Z,85.85
2022-12-07T03:22:15.595Z,85.94
2022-12-07T03:24:56.156Z,85.89
2022-12-07T03:27:25.466Z,85.55
2022-12-07T03:30:11.146Z,85.62
2022-12-07T03:32:54.195Z,85.25
2022-12-07T03:35:23.126Z,85.53
2022-12-07T03:37:53.070Z,85.96
2022-12-07T03:40:38.625Z,85.52
2022-12-07T03:43:08.857Z,86.13
2022-12-07T03:45:44.135Z,86.06
2022-12-07T03:48:26.368Z,85.97
2022-12-07T03:51:01.990Z,86.16
2022-12-07T03:53:40.901Z,86.70
2022-12-07T03:56:10.682Z,86.53
2022-12-07T03:58:38.164Z,86.71
2022-12-07T04:01:05.037Z,86.78
2022-12-07T04:03:31.889Z,87.03
2022-12-07T04:05:59.821Z,86.50
2022-12-07T04:08:26.843Z,86.91
2022-12-07T04:10:56.782Z,87.01
2022-12-07T04:13:23.553Z,87.15
2022-12-07T04:15:50.246Z,87.53
2022-12-07T04:18:17.114Z,86.64
2022-12-07T04:20:43.961Z,87.09
2022-12-07T04:23:10.759Z,87.00
2022-12-07T04:25:37.552Z,86.13
2022-12-07T04:28:06.618Z,86.62
2022-12-07T04:30:33.357Z,86.30
2022-12-07T04:33:00.177Z,86.19
2022-12-07T04:35:26.819Z,86.51
2022-12-07T04:37:53.511Z,86.64
2022-12-07T04:40:20.250Z,86.79
2022-12-07T04:42:46.980Z,87.05
2022-12-07T04:45:13.798Z,87.13
2022-12-07T04:47:40.544Z,87.52
2022-12-07T04:50:07.965Z,86.80
2022-12-07T04:52:34.581Z,87.40
2022-12-07T04:55:01.181Z,86.93
2022-12-07T04:57:27.890Z,86.70
2022-12-07T04:59:54.449Z,86.93
2022-12-07T05:02:22.402Z,86.87
2022-12-07T05:04:49.184Z,86.37
2022-12-07T05:07:15.866Z,86.77
2022-12-07T05:09:44.437Z,85.90
2022-12-07T05:12:14.268Z,85.38
2022-12-07T05:14:41.088Z,85.54
2022-12-07T05:17:07.913Z,85.66
2022-12-07T05:19:34.564Z,85.94
2022-12-07T05:22:03.809Z,86.40
2022-12-07T05:24:30.706Z,86.52
2022-12-07T05:27:01.965Z,86.67
2022-12-07T05:29:34.057Z,87.04
2022-12-07T05:32:00.791Z,86.73
2022-12-07T05:34:30.676Z,86.10
2022-12-07T05:37:00.487Z,86.28
2022-12-07T05:39:27.237Z,85.90
2022-12-07T05:42:12.586Z,86.71
2022-12-07T05:44:46.636Z,86.14
2022-12-07T05:47:15.387Z,86.54
2022-12-07T05:49:42.238Z,86.69
2022-12-07T05:52:09.437Z,86.90
2022-12-07T05:54:39.457Z,86.31
2022-12-07T05:57:06.396Z,86.74
2022-12-07T05:59:40.300Z,86.62
2022-12-07T06:02:10.820Z,86.54
2022-12-07T06:04:40.226Z,86.28
2022-12-07T06:07:07.590Z,86.06
2022-12-07T06:09:35.051Z,85.70
2022-12-07T06:12:20.825Z,86.05
2022-12-07T06:14:48.388Z,86.43
2022-12-07T06:17:15.964Z,86.77
2022-12-07T06:19:43.167Z,86.61
2022-12-07T06:22:13.482Z,86.55
2022-12-07T06:24:41.137Z,86.14
2022-12-07T06:27:08.112Z,86.36
2022-12-07T06:29:34.800Z,86.40
2022-12-07T06:32:01.796Z,86.84
2022-12-07T06:34:28.608Z,86.15
2022-12-07T06:36:56.273Z,86.00
2022-12-07T06:39:29.699Z,86.03
2022-12-07T06:42:00.110Z,85.55
2022-12-07T06:44:33.764Z,85.16
2022-12-07T06:47:25.071Z,84.50
2022-12-07T06:49:47.096Z,83.78
2022-12-07T06:52:13.848Z,84.09
2022-12-07T06:54:40.459Z,84.48
2022-12-07T06:57:11.359Z,84.84
2022-12-07T06:59:38.021Z,84.36
2022-12-07T07:02:04.879Z,84.11
2022-12-07T07:04:31.677Z,84.37
2022-12-07T07:07:00.315Z,84.52
2022-12-07T07:09:33.196Z,84.50
2022-12-07T07:11:59.802Z,84.57
2022-12-07T07:14:26.559Z,85.17
2022-12-07T07:16:55.102Z,85.09
2022-12-07T07:19:21.839Z,85.70
2022-12-07T07:21:48.701Z,85.62
2022-12-07T07:24:15.428Z,84.54
2022-12-07T07:26:42.061Z,83.58
2022-12-07T07:29:09.024Z,82.73
2022-12-07T07:31:39.214Z,81.90
2022-12-07T07:34:06.125Z,81.02
2022-12-07T07:36:33.875Z,80.66
2022-12-07T07:39:02.967Z,80.92
2022-12-07T07:41:29.996Z,81.49
2022-12-07T07:44:04.764Z,81.13
2022-12-07T07:46:38.680Z,81.13
2022-12-07T07:49:10.322Z,81.28
2022-12-07T07:51:37.490Z,81.48
2022-12-07T07:54:04.787Z,82.47
2022-12-07T07:56:31.451Z,82.76
2022-12-07T07:58:58.158Z,81.36
2022-12-07T08:01:24.951Z,81.75
2022-12-07T08:03:51.829Z,82.38
2022-12-07T08:06:18.657Z,82.40
2022-12-07T08:08:49.951Z,81.08
2022-12-07T08:11:16.633Z,80.89
2022-12-07T08:13:45.843Z,79.75
2022-12-07T08:16:16.413Z,79.55
2022-12-07T08:18:43.881Z,80.24
2022-12-07T08:21:13.973Z,79.29
2022-12-07T08:23:41.291Z,78.73
2022-12-07T08:26:10.270Z,78.98
2022-12-07T08:28:37.828Z,79.30
2022-12-07T08:31:07.953Z,79.38
2022-12-07T08:33:35.632Z,79.77
2022-12-07T08:36:06.971Z,79.21
2022-12-07T08:38:38.939Z,79.52
2022-12-07T08:41:06.238Z,79.31
2022-12-07T08:43:33.737Z,79.18
2022-12-07T08:46:22.897Z,78.95
2022-12-07T08:48:52.583Z,77.86
2022-12-07T08:51:19.930Z,78.95
2022-12-07T08:53:52.404Z,78.73
2022-12-07T08:56:20.546Z,77.26
2022-12-07T08:58:50.066Z,77.42
2022-12-07T09:01:17.023Z,77.86
2022-12-07T09:03:45.615Z,77.76
2022-12-07T09:06:12.691Z,77.88
2022-12-07T09:08:55.287Z,78.03
2022-12-07T09:11:27.141Z,77.77
2022-12-07T09:13:55.650Z,77.50
2022-12-07T09:16:22.778Z,78.22
2022-12-07T09:19:00.247Z,77.94
2022-12-07T09:21:26.951Z,78.71
2022-12-07T09:23:53.693Z,78.54
2022-12-07T09:26:20.576Z,78.02
2022-12-07T09:28:47.345Z,78.31
2022-12-07T09:31:23.468Z,78.87
2022-12-07T09:34:11.166Z,78.98
2022-12-07T09:36:37.982Z,78.22
2022-12-07T09:39:06.007Z,77.91
2022-12-07T09:41:33.888Z,77.48
2022-12-07T09:44:12.477Z,77.69
2022-12-07T09:46:41.463Z,77.91
2022-12-07T09:49:23.120Z,77.67
2022-12-07T09:52:20.707Z,79.00
2022-12-07T09:54:54.337Z,78.10
2022-12-07T09:57:32.627Z,77.36
2022-12-07T10:00:04.357Z,76.86
2022-12-07T10:02:43.224Z,77.17
2022-12-07T10:05:24.437Z,76.83
2022-12-07T10:07:53.382Z,76.33
2022-12-07T10:10:28.085Z,76.69
2022-12-07T10:15:55.403Z,76.37
2022-12-07T10:18:38.358Z,76.06
2022-12-07T10:21:11.145Z,75.07
2022-12-07T10:23:41.395Z,75.91
2022-12-07T10:26:36.300Z,76.39
2022-12-07T10:29:29.154Z,75.39
2022-12-07T10:31:59.740Z,75.46
2022-12-07T10:34:31.727Z,75.97
2022-12-07T10:37:18.314Z,75.48
2022-12-07T10:39:50.043Z,76.15
2022-12-07T10:42:27.117Z,75.98
2022-12-07T10:45:11.682Z,75.55
2022-12-07T10:47:45.867Z,76.12
2022-12-07T10:51:01.265Z,76.85
2022-12-07T10:53:45.745Z,75.30
2022-12-07T10:56:39.512Z,76.01
2022-12-07T10:59:32.714Z,75.44
2022-12-07T11:02:37.148Z,75.39
2022-12-07T11:05:22.508Z,75.39
2022-12-07T11:07:55.053Z,74.83
2022-12-07T11:10:32.145Z,74.70
2022-12-07T11:13:29.929Z,75.52
2022-12-07T11:16:13.256Z,73.83
2022-12-07T11:18:49.056Z,74.48
2022-12-07T11:21:33.848Z,73.96
2022-12-07T11:24:18.776Z,75.10
2022-12-07T11:27:18.558Z,74.68
2022-12-07T11:30:23.680Z,74.71
2022-12-07T11:33:32.202Z,75.65
2022-12-07T11:36:15.021Z,74.20
2022-12-07T11:38:52.395Z,73.57
2022-12-07T11:41:41.182Z,73.30
2022-12-07T11:44:57.074Z,74.91
2022-12-07T11:47:29.767Z,74.43
2022-12-07T11:50:23.209Z,75.57
2022-12-07T11:53:13.060Z,75.66
2022-12-07T11:56:12.304Z,75.71
2022-12-07T11:59:12.739Z,76.15
2022-12-07T12:02:19.076Z,77.41
2022-12-07T12:05:14.765Z,77.10
2022-12-07T12:10:52.375Z,77.25
2022-12-07T12:17:19.897Z,77.12
2022-12-07T12:19:56.635Z,77.35
2022-12-07T12:22:33.567Z,76.96
2022-12-07T12:25:08.394Z,77.14
2022-12-07T12:27:38.335Z,77.25
2022-12-07T12:30:25.369Z,77.33
2022-12-07T12:32:52.701Z,77.11
2022-12-07T12:35:42.402Z,77.33
2022-12-07T12:38:32.232Z,76.26
2022-12-07T12:40:59.375Z,76.58
2022-12-07T12:43:50.417Z,77.12
2022-12-07T12:46:36.161Z,76.83
2022-12-07T12:49:34.832Z,76.47
2022-12-07T12:52:39.813Z,76.25
2022-12-07T12:55:09.214Z,76.85
2022-12-07T12:57:50.378Z,76.41
2022-12-07T13:00:29.849Z,76.94
2022-12-07T13:03:00.328Z,76.87
2022-12-07T13:05:32.338Z,76.02
2022-12-07T13:08:28.102Z,76.66
2022-12-07T13:11:20.291Z,77.14
2022-12-07T13:13:50.491Z,76.73
2022-12-07T13:16:17.171Z,76.59
2022-12-07T13:18:47.903Z,76.98
2022-12-07T13:21:15.237Z,77.48
2022-12-07T13:23:46.877Z,76.98
2022-12-07T13:26:31.991Z,77.09
2022-12-07T13:29:10.931Z,77.15
2022-12-07T13:31:52.672Z,77.13
2022-12-07T13:34:32.218Z,77.37
2022-12-07T13:37:02.672Z,76.36
2022-12-07T13:39:29.850Z,76.98
2022-12-07T13:42:03.013Z,77.92
2022-12-07T13:44:41.975Z,77.34
2022-12-07T13:47:42.748Z,76.63
2022-12-07T13:50:53.337Z,76.90
2022-12-07T13:53:21.583Z,77.41
2022-12-07T13:55:54.014Z,77.25
2022-12-07T13:58:22.891Z,77.70
2022-12-07T14:00:50.127Z,76.57
2022-12-07T14:03:17.807Z,76.31
2022-12-07T14:05:48.300Z,77.27
2022-12-07T14:08:16.222Z,77.37
2022-12-07T14:10:53.785Z,76.99
2022-12-07T14:13:42.401Z,76.14
2022-12-07T14:16:18.354Z,75.65
2022-12-07T14:18:45.231Z,76.35
2022-12-07T14:21:11.914Z,77.45
2022-12-07T14:23:43.637Z,76.72
2022-12-07T14:26:18.769Z,76.78
2022-12-07T14:28:46.468Z,76.62
2022-12-07T14:31:25.219Z,76.04
2022-12-07T14:34:00.794Z,76.43
2022-12-07T14:36:27.576Z,76.15
2022-12-07T14:39:07.536Z,76.47
2022-12-07T14:41:53.677Z,76.40
2022-12-07T14:44:24.882Z,76.25
2022-12-07T14:49:45.975Z,77.68
2022-12-07T14:55:22.768Z,76.17
2022-12-07T14:57:55.425Z,76.95
2022-12-07T15:00:28.938Z,76.60
2022-12-07T15:02:56.611Z,76.20
2022-12-07T15:05:24.142Z,76.99
2022-12-07T15:07:52.509Z,77.02
2022-12-07T15:10:32.853Z,77.51
2022-12-07T15:13:25.377Z,78.64
2022-12-07T15:15:53.468Z,76.20
2022-12-07T15:18:23.972Z,77.35
2022-12-07T15:20:51.696Z,77.01
2022-12-07T15:23:18.423Z,77.75
2022-12-07T15:25:47.068Z,77.22
2022-12-07T15:28:17.859Z,77.56
2022-12-07T15:30:45.717Z,76.78
2022-12-07T15:33:17.306Z,75.57
2022-12-07T15:35:47.209Z,76.23
2022-12-07T15:38:34.472Z,76.83
2022-12-07T15:41:11.703Z,77.43
2022-12-07T15:43:57.116Z,76.57
2022-12-07T15:46:30.363Z,75.19
2022-12-07T15:48:58.142Z,74.81
2022-12-07T15:51:25.735Z,76.57
2022-12-07T15:53:53.374Z,75.71
2022-12-07T15:56:21.345Z,75.48
2022-12-07T15:58:48.149Z,76.14
2022-12-07T16:01:19.205Z,76.30
2022-12-07T16:03:47.113Z,76.53
2022-12-07T16:06:17.823Z,77.30
2022-12-07T16:08:48.251Z,77.79
2022-12-07T16:11:15.172Z,78.05
2022-12-07T16:13:42.145Z,78.88
2022-12-07T16:16:15.502Z,79.44
2022-12-07T16:18:44.806Z,79.06
2022-12-07T16:21:11.921Z,79.25
2022-12-07T16:23:39.087Z,79.28
2022-12-07T16:26:22.582Z,79.19
2022-12-07T16:28:56.503Z,79.08
2022-12-07T16:31:26.021Z,79.58
2022-12-07T16:34:03.802Z,79.96
2022-12-07T16:37:02.444Z,79.59
2022-12-07T16:39:26.804Z,79.46
2022-12-07T16:41:54.383Z,79.63
2022-12-07T16:44:22.557Z,80.08
2022-12-07T16:46:50.032Z,80.00
2022-12-07T16:49:17.780Z,80.18
2022-12-07T16:51:44.872Z,79.68
2022-12-07T16:54:13.970Z,79.82
2022-12-07T16:56:41.273Z,80.22
2022-12-07T16:59:08.596Z,80.44
2022-12-07T17:01:35.828Z,80.04
2022-12-07T17:04:06.051Z,79.69
2022-12-07T17:06:33.219Z,80.00
2022-12-07T17:09:00.341Z,80.24
2022-12-07T17:11:32.723Z,80.50
2022-12-07T17:14:21.502Z,80.45
2022-12-07T17:16:48.358Z,80.24
2022-12-07T17:19:20.862Z,79.97
2022-12-07T17:21:49.022Z,80.19
2022-12-07T17:24:18.885Z,80.30
2022-12-07T17:26:55.119Z,80.11
2022-12-07T17:29:22.745Z,80.04
2022-12-07T17:31:51.845Z,80.92
2022-12-07T17:34:19.548Z,81.21
2022-12-07T17:36:46.704Z,80.48
2022-12-07T17:39:17.028Z,80.22
2022-12-07T17:42:03.046Z,80.49
2022-12-07T17:44:29.819Z,80.18
2022-12-07T17:47:00.293Z,80.26
2022-12-07T17:49:27.705Z,81.16
2022-12-07T17:52:16.747Z,81.41
2022-12-07T17:54:43.933Z,81.12
2022-12-07T17:57:14.547Z,81.65
2022-12-07T17:59:41.493Z,81.37
2022-12-07T18:02:10.179Z,81.90
2022-12-07T18:04:37.181Z,81.77
2022-12-07T18:07:07.300Z,82.12
2022-12-07T18:09:34.161Z,82.10
2022-12-07T18:12:01.149Z,81.78
2022-12-07T18:14:30.261Z,82.19
2022-12-07T18:16:57.368Z,81.96
2022-12-07T18:19:24.946Z,82.18
2022-12-07T18:21:51.981Z,82.36
2022-12-07T18:24:18.889Z,82.58
2022-12-07T18:26:48.257Z,82.03
2022-12-07T18:29:19.076Z,82.05
2022-12-07T18:31:49.234Z,82.28
2022-12-07T18:34:18.213Z,82.99
2022-12-07T18:36:48.292Z,83.14
2022-12-07T18:39:16.474Z,83.02
2022-12-07T18:41:50.366Z,82.83
2022-12-07T18:44:18.624Z,82.49
2022-12-07T18:46:45.995Z,82.74
2022-12-07T18:49:14.087Z,82.17
2022-12-07T18:51:46.933Z,82.25
2022-12-07T18:54:15.799Z,81.93
2022-12-07T18:56:42.657Z,82.16
2022-12-07T18:59:32.914Z,82.20
2022-12-07T19:02:02.591Z,82.52
2022-12-07T19:04:30.381Z,81.62
2022-12-07T19:06:57.455Z,80.69
2022-12-07T19:09:26.696Z,82.29
2022-12-07T19:11:54.087Z,82.06
2022-12-07T19:14:27.547Z,81.02
2022-12-07T19:16:58.206Z,81.94
2022-12-07T19:19:31.252Z,82.52
2022-12-07T19:21:58.951Z,82.65
2022-12-07T19:24:29.903Z,83.56
2022-12-07T19:26:58.295Z,83.42
2022-12-07T19:29:29.102Z,82.72
2022-12-07T19:31:56.556Z,82.26
2022-12-07T19:34:23.816Z,82.82
2022-12-07T19:36:52.680Z,84.41
2022-12-07T19:39:19.555Z,84.92
2022-12-07T19:41:47.487Z,85.33
2022-12-07T19:44:20.342Z,85.89
2022-12-07T19:46:51.859Z,86.26
2022-12-07T19:49:19.913Z,86.00
2022-12-07T19:51:49.938Z,85.91
2022-12-07T19:54:19.053Z,86.69
2022-12-07T19:56:47.127Z,86.62
2022-12-07T19:59:15.085Z,86.34
2022-12-07T20:01:43.012Z,85.88
2022-12-07T20:04:24.810Z,86.33
2022-12-07T20:06:54.152Z,86.62
2022-12-07T20:09:32.920Z,86.53
2022-12-07T20:12:19.246Z,86.19
2022-12-07T20:14:49.975Z,86.45
2022-12-07T20:17:17.249Z,86.86
2022-12-07T20:19:45.128Z,86.25
2022-12-07T20:22:14.241Z,86.74
2022-12-07T20:24:41.067Z,86.94
2022-12-07T20:27:08.008Z,87.13
2022-12-07T20:29:36.653Z,86.81
2022-12-07T20:32:03.646Z,86.33
2022-12-07T20:34:30.796Z,86.68
2022-12-07T20:37:00.570Z,86.95
2022-12-07T20:39:30.623Z,86.79
2022-12-07T20:42:18.985Z,86.71
2022-12-07T20:44:45.861Z,86.66
2022-12-07T20:47:12.624Z,84.74
2022-12-07T20:49:41.820Z,84.43
2022-12-07T20:52:08.808Z,83.88
2022-12-07T20:54:37.019Z,84.55
2022-12-07T20:57:03.812Z,85.74
2022-12-07T20:59:32.349Z,85.71
2022-12-07T21:02:01.200Z,85.53
2022-12-07T21:04:29.490Z,85.27
2022-12-07T21:06:56.201Z,85.59
2022-12-07T21:09:27.145Z,86.18
2022-12-07T21:11:54.758Z,85.71
2022-12-07T21:14:22.229Z,85.63
2022-12-07T21:16:52.259Z,85.05
2022-12-07T21:19:19.105Z,85.12
2022-12-07T21:21:48.799Z,84.74
2022-12-07T21:24:15.964Z,82.99
2022-12-07T21:26:42.664Z,82.58
2022-12-07T21:29:15.777Z,83.80
2022-12-07T21:31:43.297Z,84.32
2022-12-07T21:34:10.053Z,84.45
2022-12-07T21:36:36.685Z,85.13
2022-12-07T21:39:04.754Z,84.45
2022-12-07T21:41:35.112Z,85.28
2022-12-07T21:44:05.062Z,85.12
2022-12-07T21:46:34.415Z,83.42
2022-12-07T21:49:05.308Z,83.32
2022-12-07T21:51:33.264Z,83.86
2022-12-07T21:54:02.716Z,83.65
2022-12-07T21:56:35.498Z,83.35
2022-12-07T21:59:05.409Z,83.31
2022-12-07T22:01:38.575Z,81.75
2022-12-07T22:04:11.277Z,82.48
2022-12-07T22:06:38.531Z,82.81
2022-12-07T22:09:06.464Z,83.39
2022-12-07T22:11:34.087Z,83.36
2022-12-07T22:14:24.135Z,83.82
2022-12-07T22:16:54.118Z,84.01
2022-12-07T22:19:21.199Z,84.02
2022-12-07T22:21:48.219Z,83.34
2022-12-07T22:24:15.593Z,83.25
2022-12-07T22:26:44.225Z,83.91
2022-12-07T22:29:15.197Z,84.03
2022-12-07T22:31:42.128Z,84.81
2022-12-07T22:34:16.350Z,84.30
2022-12-07T22:36:44.417Z,83.85
2022-12-07T22:39:11.279Z,84.30
2022-12-07T22:41:38.078Z,84.37
2022-12-07T22:44:10.493Z,84.42
2022-12-07T22:46:39.925Z,84.88
2022-12-07T22:49:07.270Z,85.45
2022-12-07T22:51:38.935Z,86.01
2022-12-07T22:54:08.611Z,85.85
2022-12-07T22:56:39.629Z,85.21
2022-12-07T22:59:09.909Z,86.13
2022-12-07T23:01:42.014Z,85.37
2022-12-07T23:04:09.531Z,85.09
2022-12-07T23:06:41.775Z,85.15
2022-12-07T23:09:10.794Z,85.55
2022-12-07T23:11:58.980Z,85.86
2022-12-07T23:14:35.388Z,85.42
2022-12-07T23:17:03.355Z,85.22
2022-12-07T23:19:31.825Z,85.44
2022-12-07T23:21:58.853Z,85.64
2022-12-07T23:24:27.188Z,85.61
2022-12-07T23:26:56.487Z,85.52
2022-12-07T23:29:26.137Z,85.35
2022-12-07T23:31:55.766Z,85.75
2022-12-07T23:35:10.213Z,85.42
2022-12-07T23:37:51.107Z,85.89
2022-12-07T23:40:19.198Z,85.51
2022-12-07T23:42:48.325Z,85.83
2022-12-07T23:45:15.167Z,85.86
2022-12-07T23:47:41.899Z,85.38
2022-12-07T23:50:09.075Z,85.78
2022-12-07T23:52:35.985Z,85.82
2022-12-07T23:55:03.097Z,85.11
2022-12-07T23:57:35.073Z,85.17
